Time;durP1;ratioP1;P1;durP2;ratioP2;P2;SDS_P1;SDS_P2;PMS_P1;PMS_P2;Temp;Humidity;BMP_temperature;BMP_pressure;BME280_temperature;BME280_humidity;BME280_pressure;Samples;Min_cycle;Max_cycle;Signal;HPM_P1;HPM_P2
2024/04/11 00:00:18;;;;;;;9.50;6.08;;;;;;;;;;1924802;74;21027;-48
2024/04/11 00:02:47;;;;;;;17.32;7.40;;;;;;;;;;1924718;74;21030;-48
2024/04/11 00:05:16;;;;;;;9.48;6.17;;;;;;;;;;1924778;74;21015;-47
2024/04/11 00:07:44;;;;;;;15.58;6.97;;;;;;;;;;1924797;74;21031;-48
2024/04/11 00:10:13;;;;;;;11.53;7.10;;;;;;;;;;1924813;74;21002;-48
2024/04/11 00:12:41;;;;;;;13.50;6.60;;;;;;;;;;1924781;74;21090;-48
2024/04/11 00:15:10;;;;;;;14.00;6.87;;;;;;;;;;1924861;74;21027;-47
2024/04/11 00:17:39;;;;;;;15.85;6.67;;;;;;;;;;1924776;74;20995;-47
2024/04/11 00:20:08;;;;;;;16.07;6.67;;;;;;;;;;1924791;74;21058;-50
2024/04/11 00:22:36;;;;;;;11.00;5.83;;;;;;;;;;1924709;74;21147;-47
2024/04/11 00:25:05;;;;;;;11.50;8.58;;;;;;;;;;1924838;74;21002;-47
2024/04/11 00:27:34;;;;;;;13.70;7.12;;;;;;;;;;1924808;74;21100;-47
2024/04/11 00:30:02;;;;;;;14.47;7.65;;;;;;;;;;1924824;74;21023;-47
2024/04/11 00:32:31;;;;;;;12.85;7.35;;;;;;;;;;1924867;74;21002;-47
2024/04/11 00:35:04;;;;;;;17.70;8.75;;;;;;;;;;1924757;74;21022;-47
2024/04/11 00:37:31;;;;;;;18.82;6.90;;;;;;;;;;1923511;73;21472;-48
2024/04/11 00:39:59;;;;;;;23.18;8.30;;;;;;;;;;1924830;74;20999;-48
2024/04/11 00:42:28;;;;;;;26.20;7.22;;;;;;;;;;1924731;74;21030;-48
2024/04/11 00:44:57;;;;;;;10.13;7.12;;;;;;;;;;1924767;74;21031;-48
2024/04/11 00:47:25;;;;;;;16.52;7.60;;;;;;;;;;1924873;74;21050;-48
2024/04/11 00:49:55;;;;;;;18.27;7.30;;;;;;;;;;1924775;74;21031;-48
2024/04/11 00:52:23;;;;;;;12.23;6.45;;;;;;;;;;1924786;74;21027;-48
2024/04/11 00:54:52;;;;;;;9.95;6.67;;;;;;;;;;1907906;74;21043;-48
2024/04/11 00:57:21;;;;;;;15.00;7.87;;;;;;;;;;1905398;75;21069;-48
2024/04/11 00:59:51;;;;;;;13.08;7.25;;;;;;;;;;1905409;75;21055;-48
2024/04/11 01:02:19;;;;;;;19.77;7.22;;;;;;;;;;1905410;74;21165;-48
2024/04/11 01:04:48;;;;;;;13.83;6.72;;;;;;;;;;1905392;75;21094;-48
2024/04/11 01:07:16;;;;;;;10.13;7.08;;;;;;;;;;1905348;75;21124;-48
2024/04/11 01:09:45;;;;;;;19.37;7.35;;;;;;;;;;1905440;75;21101;-48
2024/04/11 01:12:16;;;;;;;13.20;7.90;;;;;;;;;;1905352;75;21003;-48
2024/04/11 01:14:46;;;;;;;15.05;7.97;;;;;;;;;;1905560;75;20999;-48
2024/04/11 01:17:15;;;;;;;9.43;6.42;;;;;;;;;;1905241;75;21091;-48
2024/04/11 01:19:45;;;;;;;13.98;7.03;;;;;;;;;;1905287;75;21004;-48
2024/04/11 01:22:13;;;;;;;15.13;7.42;;;;;;;;;;1905237;75;21172;-48
2024/04/11 01:24:42;;;;;;;14.45;7.28;;;;;;;;;;1905403;75;21023;-48
2024/04/11 01:27:12;;;;;;;13.78;6.95;;;;;;;;;;1905300;75;21020;-48
2024/04/11 01:29:41;;;;;;;18.75;7.55;;;;;;;;;;1905250;75;21082;-48
2024/04/11 01:32:09;;;;;;;16.27;7.35;;;;;;;;;;1905254;75;21113;-48
2024/04/11 01:34:39;;;;;;;9.83;6.75;;;;;;;;;;1905202;75;21031;-48
2024/04/11 01:37:07;;;;;;;10.65;7.33;;;;;;;;;;1905260;75;21019;-48
2024/04/11 01:39:37;;;;;;;16.90;6.55;;;;;;;;;;1905290;75;21075;-48
2024/04/11 01:42:05;;;;;;;14.23;7.00;;;;;;;;;;1905254;75;20995;-48
2024/04/11 01:44:34;;;;;;;13.40;7.30;;;;;;;;;;1905286;75;21077;-48
2024/04/11 01:47:03;;;;;;;13.62;7.37;;;;;;;;;;1905218;75;21130;-48
2024/04/11 01:49:31;;;;;;;12.40;6.60;;;;;;;;;;1905327;75;21105;-47
2024/04/11 01:52:09;;;;;;;8.75;6.70;;;;;;;;;;1905270;75;21027;-48
2024/04/11 01:54:30;;;;;;;9.08;6.70;;;;;;;;;;1914366;74;21066;-48
2024/04/11 01:57:00;;;;;;;9.80;7.08;;;;;;;;;;1924604;74;21088;-47
2024/04/11 01:59:29;;;;;;;12.53;6.85;;;;;;;;;;1924646;74;21113;-48
2024/04/11 02:01:57;;;;;;;12.33;6.90;;;;;;;;;;1924569;74;21100;-48
2024/04/11 02:04:30;;;;;;;12.82;6.55;;;;;;;;;;1924667;74;21139;-47
2024/04/11 02:06:56;;;;;;;13.00;7.12;;;;;;;;;;1924397;74;21540;-47
2024/04/11 02:09:27;;;;;;;13.32;7.45;;;;;;;;;;1924638;74;21026;-48
2024/04/11 02:11:57;;;;;;;17.40;8.05;;;;;;;;;;1924597;74;21433;-47
2024/04/11 02:14:25;;;;;;;25.80;9.00;;;;;;;;;;1924756;74;21441;-48
2024/04/11 02:16:55;;;;;;;26.27;8.23;;;;;;;;;;1924607;74;21010;-47
2024/04/11 02:19:23;;;;;;;24.37;7.85;;;;;;;;;;1924668;74;21027;-48
2024/04/11 02:21:52;;;;;;;16.48;8.18;;;;;;;;;;1924680;74;21007;-47
2024/04/11 02:24:22;;;;;;;12.93;7.95;;;;;;;;;;1924634;74;21023;-47
2024/04/11 02:26:52;;;;;;;17.12;8.20;;;;;;;;;;1924610;74;21073;-48
2024/04/11 02:29:21;;;;;;;17.00;8.40;;;;;;;;;;1924773;74;21035;-47
2024/04/11 02:31:49;;;;;;;20.55;8.75;;;;;;;;;;1924737;74;21015;-48
2024/04/11 02:34:18;;;;;;;19.82;8.33;;;;;;;;;;1924686;74;21085;-48
2024/04/11 02:36:47;;;;;;;15.98;7.50;;;;;;;;;;1924553;74;21038;-47
2024/04/11 02:39:16;;;;;;;15.90;7.35;;;;;;;;;;1924646;74;21034;-47
2024/04/11 02:41:46;;;;;;;16.40;8.15;;;;;;;;;;1924598;74;21062;-47
2024/04/11 02:44:14;;;;;;;17.57;7.17;;;;;;;;;;1924629;74;21011;-48
2024/04/11 02:46:44;;;;;;;20.12;7.97;;;;;;;;;;1924705;74;21023;-47
2024/04/11 02:49:13;;;;;;;17.00;8.25;;;;;;;;;;1924654;74;21066;-47
2024/04/11 02:51:43;;;;;;;18.45;8.13;;;;;;;;;;1924562;74;21145;-47
2024/04/11 02:54:12;;;;;;;20.45;8.10;;;;;;;;;;1921250;74;21105;-47
2024/04/11 02:56:41;;;;;;;18.90;7.50;;;;;;;;;;1905318;75;21081;-47
2024/04/11 02:59:11;;;;;;;20.70;7.75;;;;;;;;;;1905202;75;21154;-47
2024/04/11 03:01:40;;;;;;;24.57;9.08;;;;;;;;;;1905195;75;21015;-48
2024/04/11 03:04:09;;;;;;;12.75;7.72;;;;;;;;;;1905146;75;21008;-47
2024/04/11 03:06:37;;;;;;;23.42;8.45;;;;;;;;;;1905195;75;21097;-47
2024/04/11 03:09:09;;;;;;;14.90;8.80;;;;;;;;;;1905146;75;21094;-48
2024/04/11 03:11:36;;;;;;;12.93;7.78;;;;;;;;;;1905075;74;21548;-48
2024/04/11 03:14:06;;;;;;;21.07;8.43;;;;;;;;;;1905206;75;21093;-50
2024/04/11 03:16:35;;;;;;;13.80;7.33;;;;;;;;;;1905076;75;21085;-48
2024/04/11 03:19:03;;;;;;;15.72;7.72;;;;;;;;;;1905229;75;21008;-50
2024/04/11 03:21:32;;;;;;;18.65;8.18;;;;;;;;;;1905144;75;21024;-49
2024/04/11 03:24:01;;;;;;;29.07;9.30;;;;;;;;;;1905209;75;21004;-49
2024/04/11 03:26:30;;;;;;;19.48;8.28;;;;;;;;;;1905269;75;21031;-48
2024/04/11 03:28:59;;;;;;;18.07;7.25;;;;;;;;;;1905277;75;21474;-48
2024/04/11 03:31:27;;;;;;;20.23;8.30;;;;;;;;;;1905106;74;21093;-49
2024/04/11 03:33:58;;;;;;;20.45;8.00;;;;;;;;;;1905126;75;21042;-49
2024/04/11 03:36:26;;;;;;;17.70;8.98;;;;;;;;;;1904991;74;21474;-48
2024/04/11 03:38:54;;;;;;;13.00;8.00;;;;;;;;;;1905059;75;21024;-48
2024/04/11 03:41:23;;;;;;;17.23;7.87;;;;;;;;;;1905059;75;21490;-48
2024/04/11 03:43:57;;;;;;;20.85;8.18;;;;;;;;;;1905014;75;21097;-48
2024/04/11 03:46:23;;;;;;;17.87;7.87;;;;;;;;;;1903164;74;21481;-48
2024/04/11 03:48:55;;;;;;;21.60;7.72;;;;;;;;;;1905095;75;21073;-48
2024/04/11 03:51:23;;;;;;;17.85;8.38;;;;;;;;;;1905047;75;21542;-47
2024/04/11 03:54:00;;;;;;;20.27;9.48;;;;;;;;;;1905127;75;21007;-48
2024/04/11 03:56:29;;;;;;;27.00;10.60;;;;;;;;;;1905296;74;21047;-48
2024/04/11 03:58:58;;;;;;;23.18;9.35;;;;;;;;;;1905371;75;21085;-48
2024/04/11 04:01:27;;;;;;;18.98;9.95;;;;;;;;;;1905383;75;21020;-48
2024/04/11 04:04:03;;;;;;;16.50;7.53;;;;;;;;;;1905394;75;21035;-48
2024/04/11 04:06:33;;;;;;;18.48;9.15;;;;;;;;;;1905264;75;21035;-47
2024/04/11 04:09:07;;;;;;;15.55;8.15;;;;;;;;;;1905294;75;21579;-49
2024/04/11 04:11:31;;;;;;;23.52;8.90;;;;;;;;;;1904991;74;21062;-48
2024/04/11 04:14:02;;;;;;;18.30;8.75;;;;;;;;;;1905310;75;21020;-48
2024/04/11 04:16:30;;;;;;;18.90;8.38;;;;;;;;;;1905253;75;21438;-48
2024/04/11 04:18:59;;;;;;;15.88;8.35;;;;;;;;;;1905276;75;21027;-46
2024/04/11 04:21:28;;;;;;;24.10;8.15;;;;;;;;;;1905229;75;21105;-47
2024/04/11 04:24:02;;;;;;;12.50;7.47;;;;;;;;;;1905233;75;21066;-47
2024/04/11 04:26:30;;;;;;;13.88;7.90;;;;;;;;;;1904799;74;21582;-47
2024/04/11 04:28:57;;;;;;;24.65;7.87;;;;;;;;;;1905086;74;21558;-47
2024/04/11 04:31:28;;;;;;;16.27;7.05;;;;;;;;;;1905316;75;21007;-47
2024/04/11 04:33:57;;;;;;;14.75;7.03;;;;;;;;;;1905244;75;21015;-47
2024/04/11 04:36:33;;;;;;;12.05;7.33;;;;;;;;;;1905322;75;21013;-47
2024/04/11 04:39:04;;;;;;;14.40;7.58;;;;;;;;;;1905548;75;21094;-47
2024/04/11 04:41:31;;;;;;;19.60;8.10;;;;;;;;;;1905122;74;21039;-47
2024/04/11 04:44:00;;;;;;;14.87;7.40;;;;;;;;;;1905319;75;21087;-47
2024/04/11 04:46:30;;;;;;;17.67;7.87;;;;;;;;;;1905212;75;21047;-47
2024/04/11 04:49:03;;;;;;;12.37;7.50;;;;;;;;;;1905195;75;21031;-47
2024/04/11 04:51:31;;;;;;;18.27;7.60;;;;;;;;;;1903576;74;21501;-47
2024/04/11 04:54:01;;;;;;;24.37;8.25;;;;;;;;;;1905300;75;21578;-47
2024/04/11 04:56:32;;;;;;;43.90;8.70;;;;;;;;;;1919150;74;21058;-47
2024/04/11 04:59:00;;;;;;;15.78;9.50;;;;;;;;;;1924615;74;21459;-47
2024/04/11 05:01:31;;;;;;;16.10;8.80;;;;;;;;;;1924610;74;21092;-48
2024/04/11 05:03:59;;;;;;;16.00;7.40;;;;;;;;;;1924556;74;21481;-49
2024/04/11 05:06:28;;;;;;;18.10;8.58;;;;;;;;;;1924591;74;21073;-47
2024/04/11 05:08:57;;;;;;;13.03;6.62;;;;;;;;;;1924205;74;21054;-47
2024/04/11 05:11:31;;;;;;;10.13;6.50;;;;;;;;;;1924474;74;21019;-48
2024/04/11 05:13:57;;;;;;;12.35;8.88;;;;;;;;;;1924050;74;21469;-48
2024/04/11 05:16:25;;;;;;;13.75;7.78;;;;;;;;;;1924510;74;21034;-48
2024/04/11 05:18:54;;;;;;;13.53;7.25;;;;;;;;;;1918554;74;21038;-48
2024/04/11 05:21:26;;;;;;;18.60;7.00;;;;;;;;;;1915039;74;21072;-48
2024/04/11 05:23:55;;;;;;;21.07;7.87;;;;;;;;;;1924536;74;21521;-48
2024/04/11 05:26:28;;;;;;;19.00;7.85;;;;;;;;;;1923680;74;21027;-48
2024/04/11 05:28:54;;;;;;;10.15;5.95;;;;;;;;;;1890009;75;21088;-49
2024/04/11 05:31:28;;;;;;;4.62;4.17;;;;;;;;;;1891378;76;21030;-51
2024/04/11 05:34:06;;;;;;;15.00;6.45;;;;;;;;;;1896287;74;21612;-49
2024/04/11 05:36:28;;;;;;;14.65;5.72;;;;;;;;;;1906205;74;21499;-49
2024/04/11 05:38:57;;;;;;;14.10;7.15;;;;;;;;;;1906938;74;21133;-49
2024/04/11 05:41:28;;;;;;;19.85;7.33;;;;;;;;;;1904322;74;21028;-48
2024/04/11 05:43:59;;;;;;;13.32;5.65;;;;;;;;;;1905367;74;21157;-48
2024/04/11 05:46:28;;;;;;;13.53;6.05;;;;;;;;;;1908431;74;21508;-48
2024/04/11 05:48:56;;;;;;;17.95;7.95;;;;;;;;;;1909350;74;21014;-48
2024/04/11 05:51:25;;;;;;;11.50;6.45;;;;;;;;;;1909592;74;21035;-47
2024/04/11 05:53:53;;;;;;;20.15;7.35;;;;;;;;;;1908766;74;21080;-49
2024/04/11 05:56:22;;;;;;;11.05;6.20;;;;;;;;;;1894930;74;21057;-47
2024/04/11 05:58:51;;;;;;;13.20;6.03;;;;;;;;;;1883561;74;20990;-47
2024/04/11 06:01:20;;;;;;;15.13;6.30;;;;;;;;;;1885668;75;20990;-49
2024/04/11 06:03:54;;;;;;;11.88;5.83;;;;;;;;;;1880361;75;21103;-47
2024/04/11 06:06:22;;;;;;;11.73;5.80;;;;;;;;;;1882042;75;21648;-47
2024/04/11 06:08:51;;;;;;;11.53;6.17;;;;;;;;;;1882554;75;21037;-48
2024/04/11 06:11:21;;;;;;;19.40;7.75;;;;;;;;;;1882167;75;21092;-47
2024/04/11 06:13:49;;;;;;;22.45;6.83;;;;;;;;;;1883766;75;21456;-47
2024/04/11 06:16:18;;;;;;;16.45;7.05;;;;;;;;;;1885351;75;20990;-49
2024/04/11 06:18:54;;;;;;;20.72;9.23;;;;;;;;;;1883434;75;21095;-48
2024/04/11 06:21:31;;;;;;;25.92;7.78;;;;;;;;;;1879926;75;21530;-48
2024/04/11 06:23:50;;;;;;;16.85;7.10;;;;;;;;;;1881177;75;21045;-51
2024/04/11 06:26:19;;;;;;;16.87;7.08;;;;;;;;;;1886002;75;20978;-47
2024/04/11 06:28:47;;;;;;;18.05;6.53;;;;;;;;;;1888241;75;21018;-47
2024/04/11 06:31:17;;;;;;;12.13;5.50;;;;;;;;;;1885521;74;21033;-47
2024/04/11 06:33:46;;;;;;;14.07;7.03;;;;;;;;;;1883359;75;21089;-47
2024/04/11 06:36:17;;;;;;;16.62;6.95;;;;;;;;;;1882275;75;21018;-50
2024/04/11 06:38:46;;;;;;;23.02;9.25;;;;;;;;;;1884427;75;21484;-49
2024/04/11 06:41:24;;;;;;;9.50;6.00;;;;;;;;;;1885264;75;21029;-49
2024/04/11 06:43:45;;;;;;;15.15;7.90;;;;;;;;;;1881566;75;21460;-48
2024/04/11 06:46:14;;;;;;;17.10;7.42;;;;;;;;;;1885099;75;21113;-48
2024/04/11 06:48:43;;;;;;;12.53;7.00;;;;;;;;;;1885579;75;21037;-48
2024/04/11 06:51:14;;;;;;;20.17;7.92;;;;;;;;;;1884530;75;20993;-48
2024/04/11 06:53:46;;;;;;;15.90;6.87;;;;;;;;;;1882350;75;21636;-47
2024/04/11 06:56:15;;;;;;;13.25;6.75;;;;;;;;;;1881166;75;21100;-48
2024/04/11 06:58:44;;;;;;;11.05;6.45;;;;;;;;;;1890253;75;21481;-48
2024/04/11 07:01:15;;;;;;;11.22;5.75;;;;;;;;;;1889481;75;21485;-47
2024/04/11 07:03:43;;;;;;;20.15;7.47;;;;;;;;;;1890535;75;21061;-47
2024/04/11 07:06:35;;;;;;;12.20;7.30;;;;;;;;;;1888861;75;21243;-48
2024/04/11 07:08:43;;;;;;;15.18;7.37;;;;;;;;;;1882373;75;21531;-48
2024/04/11 07:13:44;;;;;;;12.20;7.87;;;;;;;;;;1887940;75;21450;-51
2024/04/11 07:16:16;;;;;;;27.77;9.70;;;;;;;;;;1887807;75;21089;-51
2024/04/11 07:18:48;;;;;;;8.93;5.42;;;;;;;;;;1889860;74;21469;-49
2024/04/11 07:21:19;;;;;;;10.78;7.33;;;;;;;;;;1890170;75;21546;-51
2024/04/11 07:23:53;;;;;;;11.88;4.83;;;;;;;;;;1888521;75;21050;-48
2024/04/11 07:26:21;;;;;;;16.80;7.30;;;;;;;;;;1886794;74;21512;-48
2024/04/11 07:28:48;;;;;;;14.30;6.80;;;;;;;;;;1886573;74;21074;-49
2024/04/11 07:31:19;;;;;;;15.10;7.35;;;;;;;;;;1889100;75;21011;-48
2024/04/11 07:33:48;;;;;;;14.50;7.60;;;;;;;;;;1890499;75;21126;-49
2024/04/11 07:36:26;;;;;;;16.27;7.50;;;;;;;;;;1888168;75;21101;-49
2024/04/11 07:38:57;;;;;;;12.33;6.62;;;;;;;;;;1887704;75;21027;-49
2024/04/11 07:41:27;;;;;;;18.65;7.47;;;;;;;;;;1887837;75;21090;-49
2024/04/11 07:44:00;;;;;;;17.75;7.42;;;;;;;;;;1886124;75;21468;-49
2024/04/11 07:46:33;;;;;;;12.07;6.97;;;;;;;;;;1881654;75;21185;-48
2024/04/11 07:48:59;;;;;;;15.70;8.08;;;;;;;;;;1899891;74;21039;-48
2024/04/11 07:51:27;;;;;;;12.35;7.20;;;;;;;;;;1905318;75;21066;-48
2024/04/11 07:53:57;;;;;;;18.90;6.95;;;;;;;;;;1904432;75;21083;-51
2024/04/11 07:56:26;;;;;;;17.02;7.95;;;;;;;;;;1906292;74;21390;-49
2024/04/11 07:58:58;;;;;;;19.35;7.53;;;;;;;;;;1924679;74;21031;-48
2024/04/11 08:01:34;;;;;;;34.63;8.75;;;;;;;;;;1924708;74;21330;-50
2024/04/11 08:04:04;;;;;;;20.72;8.15;;;;;;;;;;1924649;74;21003;-49
2024/04/11 08:06:34;;;;;;;16.30;7.72;;;;;;;;;;1924733;74;21072;-52
2024/04/11 08:09:06;;;;;;;14.73;6.17;;;;;;;;;;1924617;74;21070;-49
2024/04/11 08:11:35;;;;;;;13.45;5.78;;;;;;;;;;1924812;74;21034;-49
2024/04/11 08:14:04;;;;;;;13.43;6.72;;;;;;;;;;1924724;74;21031;-49
2024/04/11 08:16:36;;;;;;;17.95;7.17;;;;;;;;;;1924565;74;21151;-49
2024/04/11 08:19:09;;;;;;;15.28;7.70;;;;;;;;;;1924840;74;21027;-49
2024/04/11 08:21:36;;;;;;;19.67;7.92;;;;;;;;;;1924377;74;21559;-49
2024/04/11 08:24:04;;;;;;;15.63;6.83;;;;;;;;;;1924588;74;21014;-48
2024/04/11 08:26:33;;;;;;;25.65;7.65;;;;;;;;;;1924696;74;21027;-49
2024/04/11 08:29:02;;;;;;;17.45;7.58;;;;;;;;;;1924581;74;21092;-49
2024/04/11 08:31:32;;;;;;;19.62;8.33;;;;;;;;;;1924463;74;21534;-49
2024/04/11 08:34:00;;;;;;;21.85;8.48;;;;;;;;;;1924619;74;21128;-49
2024/04/11 08:36:29;;;;;;;11.57;7.53;;;;;;;;;;1924664;74;21015;-49
2024/04/11 08:38:59;;;;;;;11.40;7.10;;;;;;;;;;1924582;74;21054;-48
2024/04/11 08:41:27;;;;;;;23.65;9.93;;;;;;;;;;1924740;74;21027;-49
2024/04/11 08:43:59;;;;;;;11.57;6.83;;;;;;;;;;1924620;74;21086;-49
2024/04/11 08:46:28;;;;;;;14.30;8.13;;;;;;;;;;1924602;74;21074;-49
2024/04/11 08:48:56;;;;;;;15.95;9.08;;;;;;;;;;1924692;74;21088;-49
2024/04/11 08:51:25;;;;;;;23.50;9.90;;;;;;;;;;1924618;74;21130;-49
2024/04/11 08:53:57;;;;;;;17.23;8.75;;;;;;;;;;1924576;74;21030;-49
2024/04/11 08:56:27;;;;;;;23.40;9.83;;;;;;;;;;1924539;74;21026;-49
2024/04/11 08:58:55;;;;;;;15.32;8.88;;;;;;;;;;1924672;74;21039;-49
2024/04/11 09:01:24;;;;;;;14.60;8.65;;;;;;;;;;1924630;74;20987;-49
2024/04/11 09:03:53;;;;;;;14.30;6.85;;;;;;;;;;1924663;74;21096;-50
2024/04/11 09:06:28;;;;;;;33.95;10.20;;;;;;;;;;1924606;74;21152;-49
2024/04/11 09:08:56;;;;;;;14.15;9.88;;;;;;;;;;1924563;74;21539;-49
2024/04/11 09:11:31;;;;;;;15.95;8.63;;;;;;;;;;1924597;74;21619;-49
2024/04/11 09:13:59;;;;;;;17.20;8.70;;;;;;;;;;1923769;74;21046;-49
2024/04/11 09:16:27;;;;;;;17.90;9.10;;;;;;;;;;1924555;74;21082;-49
2024/04/11 09:19:02;;;;;;;13.22;7.58;;;;;;;;;;1924648;74;21003;-51
2024/04/11 09:21:31;;;;;;;15.78;8.00;;;;;;;;;;1924714;74;21026;-49
2024/04/11 09:24:01;;;;;;;14.85;8.98;;;;;;;;;;1924728;74;21061;-49
2024/04/11 09:26:30;;;;;;;15.00;8.05;;;;;;;;;;1924711;74;21030;-49
2024/04/11 09:28:58;;;;;;;17.30;8.30;;;;;;;;;;1924732;74;21152;-49
2024/04/11 09:31:29;;;;;;;14.87;8.15;;;;;;;;;;1924751;74;21003;-49
2024/04/11 09:33:59;;;;;;;17.80;8.20;;;;;;;;;;1924755;74;21531;-49
2024/04/11 09:36:30;;;;;;;17.90;8.73;;;;;;;;;;1924733;74;21080;-49
2024/04/11 09:39:04;;;;;;;14.83;8.95;;;;;;;;;;1924751;74;21607;-49
2024/04/11 09:41:31;;;;;;;16.32;8.13;;;;;;;;;;1924160;74;21518;-49
2024/04/11 09:44:01;;;;;;;16.40;8.58;;;;;;;;;;1924669;74;21013;-48
2024/04/11 09:46:31;;;;;;;12.95;7.85;;;;;;;;;;1924697;74;21022;-50
2024/04/11 09:49:01;;;;;;;19.42;8.63;;;;;;;;;;1924474;74;21038;-49
2024/04/11 09:51:31;;;;;;;17.95;8.20;;;;;;;;;;1924621;74;21007;-49
2024/04/11 09:54:03;;;;;;;16.62;6.80;;;;;;;;;;1924510;74;21023;-49
2024/04/11 09:56:30;;;;;;;16.95;8.15;;;;;;;;;;1924471;74;21538;-49
2024/04/11 09:59:02;;;;;;;18.32;8.20;;;;;;;;;;1924442;74;21051;-49
2024/04/11 10:01:31;;;;;;;14.65;6.67;;;;;;;;;;1924729;74;21518;-49
2024/04/11 10:04:01;;;;;;;23.20;8.33;;;;;;;;;;1924545;74;20983;-49
2024/04/11 10:06:30;;;;;;;13.50;7.50;;;;;;;;;;1924589;74;21027;-49
2024/04/11 10:09:19;;;;;;;13.10;7.20;;;;;;;;;;1924563;74;21007;-48
2024/04/11 10:11:49;;;;;;;13.48;7.15;;;;;;;;;;1924624;74;21100;-49
2024/04/11 10:14:20;;;;;;;19.65;7.58;;;;;;;;;;1924553;74;21539;-49
2024/04/11 10:16:48;;;;;;;18.07;8.28;;;;;;;;;;1924667;74;21586;-49
2024/04/11 10:19:26;;;;;;;11.40;6.22;;;;;;;;;;1924801;74;21058;-50
2024/04/11 10:22:04;;;;;;;25.45;7.97;;;;;;;;;;1924551;74;21105;-49
2024/04/11 10:24:36;;;;;;;13.75;6.08;;;;;;;;;;1924536;74;21038;-49
2024/04/11 10:27:17;;;;;;;10.68;6.08;;;;;;;;;;1924583;74;20979;-50
2024/04/11 10:29:46;;;;;;;11.53;7.00;;;;;;;;;;1924062;74;21102;-49
2024/04/11 10:32:35;;;;;;;11.80;9.03;;;;;;;;;;1924585;74;21089;-49
2024/04/11 10:34:57;;;;;;;8.93;5.72;;;;;;;;;;1923654;74;21042;-49
2024/04/11 10:37:36;;;;;;;12.65;7.22;;;;;;;;;;1924703;74;21081;-50
2024/04/11 10:40:15;;;;;;;14.83;6.47;;;;;;;;;;1923766;74;21438;-48
2024/04/11 10:45:38;;;;;;;15.43;6.40;;;;;;;;;;1924605;74;21039;-49
2024/04/11 10:48:14;;;;;;;21.95;7.37;;;;;;;;;;1924606;74;21064;-49
2024/04/11 10:50:42;;;;;;;15.32;7.10;;;;;;;;;;1924346;74;21473;-49
2024/04/11 10:53:12;;;;;;;13.83;6.50;;;;;;;;;;1924547;74;21496;-48
2024/04/11 10:55:43;;;;;;;14.70;7.97;;;;;;;;;;1924518;74;21497;-48
2024/04/11 11:03:47;;;;;;;8.90;5.55;;;;;;;;;;1924624;74;21301;-52
2024/04/11 11:06:24;;;;;;;13.55;7.62;;;;;;;;;;1924648;74;21077;-50
2024/04/11 11:08:51;;;;;;;14.93;5.70;;;;;;;;;;1924259;74;21543;-49
2024/04/11 11:11:21;;;;;;;14.93;6.60;;;;;;;;;;1924746;74;21015;-51
2024/04/11 11:13:54;;;;;;;12.98;6.42;;;;;;;;;;1924707;74;21047;-48
2024/04/11 11:16:21;;;;;;;15.35;6.28;;;;;;;;;;1924482;74;21404;-48
2024/04/11 11:18:52;;;;;;;9.53;6.65;;;;;;;;;;1924777;74;21019;-49
2024/04/11 11:21:22;;;;;;;9.70;5.47;;;;;;;;;;1924622;74;21057;-49
2024/04/11 11:24:06;;;;;;;8.63;6.62;;;;;;;;;;1924583;74;21085;-49
2024/04/11 11:26:36;;;;;;;7.12;5.78;;;;;;;;;;1924528;74;21493;-48
2024/04/11 11:29:09;;;;;;;8.88;6.42;;;;;;;;;;1924596;74;21076;-49
2024/04/11 11:31:40;;;;;;;16.75;7.60;;;;;;;;;;1924695;74;21073;-49
2024/04/11 11:34:09;;;;;;;9.13;6.47;;;;;;;;;;1924641;74;21018;-49
2024/04/11 11:36:38;;;;;;;10.40;6.00;;;;;;;;;;1924608;74;21057;-48
2024/04/11 11:39:17;;;;;;;10.28;6.20;;;;;;;;;;1924621;74;21023;-49
2024/04/11 11:41:43;;;;;;;13.30;6.78;;;;;;;;;;1922764;74;21469;-49
2024/04/11 11:44:17;;;;;;;15.55;7.75;;;;;;;;;;1924080;74;21081;-49
2024/04/11 11:46:38;;;;;;;11.97;7.10;;;;;;;;;;1923319;74;21062;-48
2024/04/11 11:49:08;;;;;;;23.20;7.60;;;;;;;;;;1924596;74;21140;-51
2024/04/11 11:51:36;;;;;;;8.18;6.53;;;;;;;;;;1924607;74;21484;-48
2024/04/11 11:54:12;;;;;;;9.48;5.12;;;;;;;;;;1924723;74;21011;-48
2024/04/11 11:56:35;;;;;;;11.50;5.62;;;;;;;;;;1923693;74;21014;-47
2024/04/11 11:59:04;;;;;;;9.03;5.60;;;;;;;;;;1912954;74;21027;-47
2024/04/11 12:01:41;;;;;;;10.00;5.95;;;;;;;;;;1909146;74;20997;-47
2024/04/11 12:04:10;;;;;;;9.25;6.03;;;;;;;;;;1908562;74;21040;-47
2024/04/11 12:06:44;;;;;;;9.83;6.90;;;;;;;;;;1906132;74;21137;-47
2024/04/11 12:09:12;;;;;;;19.32;7.45;;;;;;;;;;1906919;74;21473;-46
2024/04/11 12:12:07;;;;;;;15.75;6.95;;;;;;;;;;1906510;74;21008;-47
2024/04/11 12:14:22;;;;;;;10.53;5.90;;;;;;;;;;1905654;74;21014;-46
2024/04/11 12:16:41;;;;;;;13.95;6.50;;;;;;;;;;1910137;74;20995;-47
2024/04/11 12:19:10;;;;;;;7.97;5.37;;;;;;;;;;1908522;74;21048;-46
2024/04/11 12:21:44;;;;;;;26.95;6.80;;;;;;;;;;1905470;74;21326;-47
2024/04/11 12:24:09;;;;;;;11.12;6.20;;;;;;;;;;1891212;75;21079;-47
2024/04/11 12:26:39;;;;;;;12.00;6.78;;;;;;;;;;1897570;74;21020;-47
2024/04/11 12:29:07;;;;;;;8.75;6.62;;;;;;;;;;1907202;74;21461;-47
2024/04/11 12:31:36;;;;;;;10.25;6.12;;;;;;;;;;1909677;74;21076;-47
2024/04/11 12:34:09;;;;;;;10.03;5.75;;;;;;;;;;1908124;74;21098;-47
2024/04/11 12:36:56;;;;;;;8.93;6.40;;;;;;;;;;1905978;74;21482;-46
2024/04/11 12:39:21;;;;;;;15.53;7.30;;;;;;;;;;1909710;74;21540;-46
2024/04/11 12:41:47;;;;;;;8.73;6.37;;;;;;;;;;1907112;74;21460;-46
2024/04/11 12:44:15;;;;;;;10.45;7.47;;;;;;;;;;1909725;74;21007;-47
2024/04/11 12:46:53;;;;;;;10.00;6.75;;;;;;;;;;1907804;74;21032;-46
2024/04/11 12:49:35;;;;;;;9.45;6.53;;;;;;;;;;1907352;74;21090;-46
2024/04/11 12:52:00;;;;;;;9.90;6.58;;;;;;;;;;1901460;74;21203;-48
2024/04/11 12:54:28;;;;;;;9.03;6.90;;;;;;;;;;1908771;74;21520;-47
2024/04/11 12:56:57;;;;;;;19.25;7.08;;;;;;;;;;1906199;74;21032;-46
2024/04/11 12:59:30;;;;;;;15.53;6.35;;;;;;;;;;1904765;74;21082;-47
2024/04/11 13:02:07;;;;;;;26.55;8.48;;;;;;;;;;1900069;75;21067;-47
2024/04/11 13:04:36;;;;;;;27.25;8.75;;;;;;;;;;1899383;75;21487;-47
2024/04/11 13:07:13;;;;;;;12.43;7.17;;;;;;;;;;1898466;75;21004;-47
2024/04/11 13:09:54;;;;;;;11.12;6.75;;;;;;;;;;1897626;75;21017;-47
2024/04/11 13:12:25;;;;;;;17.45;6.17;;;;;;;;;;1894456;75;21037;-47
2024/04/11 13:14:57;;;;;;;9.33;5.70;;;;;;;;;;1901151;75;21456;-47
2024/04/11 13:17:26;;;;;;;13.85;6.30;;;;;;;;;;1896747;75;21071;-47
2024/04/11 13:19:57;;;;;;;18.80;6.65;;;;;;;;;;1899015;74;21076;-47
2024/04/11 13:22:28;;;;;;;11.22;6.37;;;;;;;;;;1900118;75;21132;-47
2024/04/11 13:25:10;;;;;;;8.00;6.33;;;;;;;;;;1898323;75;21018;-47
2024/04/11 13:27:38;;;;;;;9.40;5.75;;;;;;;;;;1896423;75;21527;-46
2024/04/11 13:30:16;;;;;;;8.88;7.05;;;;;;;;;;1896835;75;21022;-47
2024/04/11 13:32:37;;;;;;;14.35;8.35;;;;;;;;;;1895579;75;21487;-46
2024/04/11 13:35:07;;;;;;;12.58;6.05;;;;;;;;;;1899764;75;21030;-47
2024/04/11 13:37:38;;;;;;;8.98;6.05;;;;;;;;;;1896384;75;21014;-46
2024/04/11 13:43:00;;;;;;;14.50;6.37;;;;;;;;;;1897716;75;21034;-47
2024/04/11 13:45:28;;;;;;;11.63;5.92;;;;;;;;;;1896711;75;21469;-48
2024/04/11 13:48:01;;;;;;;12.33;6.05;;;;;;;;;;1898478;75;21019;-47
2024/04/11 13:50:52;;;;;;;11.20;6.45;;;;;;;;;;1898665;75;20992;-47
2024/04/11 13:53:20;;;;;;;9.08;5.83;;;;;;;;;;1899485;75;21023;-46
2024/04/11 13:55:46;;;;;;;10.25;5.65;;;;;;;;;;1899598;75;21481;-47
2024/04/11 15:08:35;;;;;;;11.08;6.40;;;21.10;79.10;;;;;;1957766;73;25664;-48
2024/04/11 15:11:11;;;;;;;9.78;6.15;;;21.00;79.90;;;;;;1916638;75;21086;-48
2024/04/11 15:13:36;;;;;;;13.08;6.75;;;20.90;79.90;;;;;;1917381;74;21503;-49
2024/04/11 15:18:53;;;;;;;15.10;7.28;;;20.90;80.20;;;;;;1778343;80;21063;-49
2024/04/11 15:21:39;;;;;;;14.65;7.65;;;20.80;80.30;;;;;;1873471;74;21087;-49
2024/04/11 15:24:18;;;;;;;34.35;10.68;;;20.90;80.50;;;;;;1918333;75;21043;-49
2024/04/11 15:26:38;;;;;;;17.85;8.25;;;20.80;80.50;;;;;;1913587;74;21043;-48
2024/04/11 15:29:18;;;;;;;23.98;12.80;;;20.80;80.70;;;;;;1918463;75;21081;-47
2024/04/11 15:31:41;;;;;;;16.55;7.80;;;20.80;80.70;;;;;;1916996;74;21015;-47
2024/04/11 15:34:09;;;;;;;17.48;7.42;;;20.80;80.70;;;;;;1918352;75;21078;-47
2024/04/11 15:36:52;;;;;;;9.50;6.75;;;20.70;80.60;;;;;;1918354;73;20995;-47
2024/04/11 15:39:16;;;;;;;13.72;8.18;;;20.70;80.70;;;;;;1916851;74;21015;-48
2024/04/11 15:41:45;;;;;;;11.08;7.95;;;20.70;80.70;;;;;;1918222;74;21502;-47
2024/04/11 15:44:17;;;;;;;15.08;8.53;;;20.70;80.80;;;;;;1918123;74;21030;-48
2024/04/11 15:46:49;;;;;;;15.70;7.87;;;;;;;;;;1918407;75;21030;-48
2024/04/11 15:49:18;;;;;;;14.55;8.05;;;;;;;;;;1918092;74;21164;-47
2024/04/11 15:51:50;;;;;;;13.28;7.65;;;;;;;;;;1918319;75;21464;-48
2024/04/11 15:54:37;;;;;;;28.05;8.53;;;;;;;;;;1918315;75;21015;-47
2024/04/11 15:56:53;;;;;;;22.55;10.05;;;;;;;;;;1915319;74;21473;-48
2024/04/11 15:59:23;;;;;;;45.85;11.25;;;;;;;;;;1917823;74;21445;-47
2024/04/11 16:01:49;;;;;;;38.85;12.23;;;;;;;;;;1918003;74;21080;-48
2024/04/11 16:04:17;;;;;;;36.83;15.98;;;;;;;;;;1918192;75;21027;-47
2024/04/11 16:06:47;;;;;;;24.70;10.80;;;;;;;;;;1918451;74;21023;-48
2024/04/11 16:09:16;;;;;;;13.95;8.45;;;;;;;;;;1925312;74;21043;-48